createdAt,value
2023-02-22T00:01:07.954Z,97654.56
2023-02-22T00:03:35.344Z,97655.02
2023-02-22T00:06:06.439Z,97654.96
2023-02-22T00:08:37.963Z,97656.38
2023-02-22T00:11:09.826Z,97663.27
2023-02-22T00:13:38.812Z,97659.61
2023-02-22T00:16:06.095Z,97664.27
2023-02-22T00:18:34.191Z,97672.63
2023-02-22T00:21:04.795Z,97673.48
2023-02-22T00:23:32.193Z,97675.30
2023-02-22T00:26:04.196Z,97670.13
2023-02-22T00:28:31.058Z,97668.95
2023-02-22T00:31:00.094Z,97673.13
2023-02-22T00:33:28.616Z,97675.39
2023-02-22T00:35:55.892Z,97678.86
2023-02-22T00:38:23.086Z,97680.34
2023-02-22T00:40:50.470Z,97679.19
2023-02-22T00:43:18.108Z,97682.89
2023-02-22T00:45:45.276Z,97683.77
2023-02-22T00:48:13.015Z,97684.01
2023-02-22T00:50:40.174Z,97684.01
2023-02-22T00:53:08.422Z,97685.48
2023-02-22T00:55:38.225Z,97683.48
2023-02-22T00:58:06.830Z,97681.79
2023-02-22T01:00:40.657Z,97682.56
2023-02-22T01:03:10.906Z,97683.25
2023-02-22T01:05:38.803Z,97683.58
2023-02-22T01:08:08.675Z,97685.08
2023-02-22T01:10:37.084Z,97683.63
2023-02-22T01:13:09.474Z,97679.80
2023-02-22T01:15:40.442Z,97684.36
2023-02-22T01:18:08.355Z,97686.05
2023-02-22T01:20:37.200Z,97690.73
2023-02-22T01:23:07.338Z,97686.43
2023-02-22T01:25:35.631Z,97688.48
2023-02-22T01:28:07.180Z,97688.31
2023-02-22T01:30:36.949Z,97690.59
2023-02-22T01:33:08.136Z,97689.87
2023-02-22T01:35:39.185Z,97687.32
2023-02-22T01:38:06.503Z,97688.13
2023-02-22T01:40:36.542Z,97687.02
2023-02-22T01:43:18.103Z,97687.00
2023-02-22T01:45:55.131Z,97686.00
2023-02-22T01:48:30.576Z,97688.23
2023-02-22T01:51:11.205Z,97685.34
2023-02-22T01:53:55.841Z,97686.85
2023-02-22T01:56:25.679Z,97692.23
2023-02-22T01:59:02.277Z,97689.86
2023-02-22T02:04:25.944Z,97695.38
2023-02-22T02:06:58.632Z,97689.96
2023-02-22T02:09:35.437Z,97691.24
2023-02-22T02:12:05.616Z,97693.35
2023-02-22T02:14:34.478Z,97691.84
2023-02-22T02:17:02.523Z,97693.69
2023-02-22T02:19:42.217Z,97698.65
2023-02-22T02:22:21.387Z,97698.16
2023-02-22T02:25:39.598Z,97697.07
2023-02-22T02:28:10.008Z,97696.02
2023-02-22T02:31:08.711Z,97692.95
2023-02-22T02:33:50.760Z,97692.83
2023-02-22T02:36:37.349Z,97690.81
2023-02-22T02:39:18.587Z,97688.56
2023-02-22T02:41:51.013Z,97688.05
2023-02-22T02:44:48.676Z,97690.54
2023-02-22T02:47:26.520Z,97694.69
2023-02-22T02:50:06.111Z,97691.26
2023-02-22T02:52:35.799Z,97692.64
2023-02-22T02:55:05.280Z,97688.91
2023-02-22T02:57:32.520Z,97693.02
2023-02-22T03:00:01.674Z,97693.20
2023-02-22T03:02:51.892Z,97693.43
2023-02-22T03:05:46.584Z,97695.70
2023-02-22T03:08:32.528Z,97700.43
2023-02-22T03:11:18.921Z,97702.19
2023-02-22T03:13:56.538Z,97702.77
2023-02-22T03:16:30.066Z,97703.80
2023-02-22T03:19:13.512Z,97703.64
2023-02-22T03:21:57.651Z,97705.67
2023-02-22T03:24:32.293Z,97706.62
2023-02-22T03:27:17.720Z,97703.13
2023-02-22T03:29:46.218Z,97707.15
2023-02-22T03:32:17.701Z,97708.19
2023-02-22T03:34:53.215Z,97703.94
2023-02-22T03:37:27.287Z,97704.02
2023-02-22T03:39:55.853Z,97706.24
2023-02-22T03:42:29.981Z,97704.33
2023-02-22T03:45:00.743Z,97711.65
2023-02-22T03:47:50.798Z,97712.11
2023-02-22T03:50:30.300Z,97717.27
2023-02-22T03:53:01.112Z,97715.34
2023-02-22T03:55:29.405Z,97719.69
2023-02-22T03:57:59.878Z,97719.25
2023-02-22T04:00:30.395Z,97715.20
2023-02-22T04:02:57.865Z,97718.36
2023-02-22T04:05:26.614Z,97716.65
2023-02-22T04:07:55.201Z,97715.55
2023-02-22T04:10:23.923Z,97713.95
2023-02-22T04:12:56.859Z,97718.86
2023-02-22T04:15:25.381Z,97723.09
2023-02-22T04:17:53.210Z,97715.55
2023-02-22T04:20:21.030Z,97716.02
2023-02-22T04:22:47.936Z,97715.95
2023-02-22T04:25:15.314Z,97715.53
2023-02-22T04:27:42.850Z,97716.08
2023-02-22T04:30:10.517Z,97717.32
2023-02-22T04:32:39.192Z,97719.38
2023-02-22T04:35:08.812Z,97718.76
2023-02-22T04:37:35.830Z,97723.96
2023-02-22T04:40:07.580Z,97716.80
2023-02-22T04:42:36.417Z,97714.81
2023-02-22T04:45:04.894Z,97717.27
2023-02-22T04:47:32.012Z,97714.81
2023-02-22T04:50:00.814Z,97713.09
2023-02-22T04:52:28.333Z,97716.80
2023-02-22T04:54:55.487Z,97716.08
2023-02-22T04:57:25.354Z,97716.44
2023-02-22T04:59:52.972Z,97716.77
2023-02-22T05:02:20.655Z,97719.27
2023-02-22T05:04:48.030Z,97718.02
2023-02-22T05:07:16.857Z,97714.83
2023-02-22T05:09:45.743Z,97716.42
2023-02-22T05:12:12.947Z,97715.17
2023-02-22T05:14:40.634Z,97714.10
2023-02-22T05:17:08.179Z,97714.94
2023-02-22T05:19:37.012Z,97718.28
2023-02-22T05:22:06.128Z,97721.30
2023-02-22T05:24:33.395Z,97724.65
2023-02-22T05:27:00.933Z,97731.80
2023-02-22T05:29:28.323Z,97730.98
2023-02-22T05:31:55.452Z,97726.21
2023-02-22T05:34:22.806Z,97732.33
2023-02-22T05:36:50.359Z,97733.51
2023-02-22T05:39:17.480Z,97737.64
2023-02-22T05:41:44.769Z,97739.73
2023-02-22T05:44:12.085Z,97746.86
2023-02-22T05:46:39.638Z,97744.90
2023-02-22T05:49:07.300Z,97743.79
2023-02-22T05:51:35.095Z,97750.55
2023-02-22T05:54:02.998Z,97755.13
2023-02-22T05:56:31.993Z,97760.89
2023-02-22T05:59:00.086Z,97764.58
2023-02-22T06:01:28.190Z,97766.63
2023-02-22T06:03:55.496Z,97767.49
2023-02-22T06:06:23.059Z,97772.83
2023-02-22T06:08:50.788Z,97773.64
2023-02-22T06:11:20.059Z,97774.29
2023-02-22T06:13:54.172Z,97777.06
2023-02-22T06:16:25.485Z,97781.66
2023-02-22T06:18:52.925Z,97782.86
2023-02-22T06:21:20.109Z,97786.23
2023-02-22T06:23:47.546Z,97788.48
2023-02-22T06:26:17.794Z,97788.45
2023-02-22T06:28:46.382Z,97785.20
2023-02-22T06:31:14.279Z,97790.17
2023-02-22T06:45:35.060Z,97800.29
2023-02-22T06:48:02.541Z,97799.08
2023-02-22T06:50:31.568Z,97802.84
2023-02-22T06:52:59.312Z,97806.66
2023-02-22T06:55:29.165Z,97806.23
2023-02-22T06:57:56.598Z,97809.66
2023-02-22T07:00:26.356Z,97803.08
2023-02-22T07:02:54.837Z,97808.58
2023-02-22T07:05:24.350Z,97811.86
2023-02-22T07:07:53.769Z,97814.98
2023-02-22T07:10:29.660Z,97818.27
2023-02-22T07:12:57.810Z,97815.73
2023-02-22T07:15:28.440Z,97815.57
2023-02-22T07:17:55.904Z,97818.45
2023-02-22T07:20:25.485Z,97820.08
2023-02-22T07:22:53.143Z,97820.64
2023-02-22T07:25:20.900Z,97825.33
2023-02-22T07:27:49.006Z,97822.16
2023-02-22T07:30:26.228Z,97825.90
2023-02-22T07:32:56.205Z,97826.74
2023-02-22T07:35:30.736Z,97826.84
2023-02-22T07:37:59.323Z,97826.60
2023-02-22T07:40:29.063Z,97824.72
2023-02-22T07:42:58.162Z,97823.15
2023-02-22T07:45:29.375Z,97824.48
2023-02-22T07:47:57.774Z,97823.05
2023-02-22T07:50:26.661Z,97821.90
2023-02-22T07:52:58.715Z,97821.73
2023-02-22T07:55:28.608Z,97820.91
2023-02-22T07:58:00.174Z,97823.30
2023-02-22T08:00:42.482Z,97822.95
2023-02-22T08:03:11.825Z,97821.50
2023-02-22T08:05:44.168Z,97823.65
2023-02-22T08:08:12.471Z,97819.68
2023-02-22T08:10:40.853Z,97818.80
2023-02-22T08:13:08.270Z,97819.14
2023-02-22T08:15:38.726Z,97824.90
2023-02-22T08:18:09.817Z,97824.14
2023-02-22T08:20:39.328Z,97823.45
2023-02-22T08:23:07.515Z,97823.75
2023-02-22T08:25:38.335Z,97824.80
2023-02-22T08:28:11.931Z,97822.64
2023-02-22T08:30:41.020Z,97823.66
2023-02-22T08:33:08.459Z,97826.65
2023-02-22T08:35:35.742Z,97825.59
2023-02-22T08:38:09.145Z,97824.53
2023-02-22T08:40:40.895Z,97822.40
2023-02-22T08:43:08.510Z,97828.40
2023-02-22T08:45:35.986Z,97829.20
2023-02-22T08:48:04.237Z,97827.29
2023-02-22T08:50:38.435Z,97833.98
2023-02-22T08:53:07.249Z,97837.30
2023-02-22T08:55:38.011Z,97839.50
2023-02-22T08:58:09.885Z,97839.23
2023-02-22T09:00:39.164Z,97837.88
2023-02-22T09:03:14.265Z,97839.02
2023-02-22T09:05:42.722Z,97836.84
2023-02-22T09:08:12.273Z,97839.23
2023-02-22T09:10:39.476Z,97835.50
2023-02-22T09:13:07.412Z,97839.80
2023-02-22T09:15:40.188Z,97841.64
2023-02-22T09:18:09.105Z,97839.64
2023-02-22T09:20:36.563Z,97839.56
2023-02-22T09:23:08.929Z,97838.26
2023-02-22T09:25:36.599Z,97837.73
2023-02-22T09:28:04.149Z,97841.99
2023-02-22T09:30:36.269Z,97843.92
2023-02-22T09:33:06.451Z,97848.02
2023-02-22T09:35:36.638Z,97849.64
2023-02-22T09:38:06.677Z,97847.05
2023-02-22T09:40:41.706Z,97842.47
2023-02-22T09:43:30.021Z,97846.63
2023-02-22T09:46:23.494Z,97847.16
2023-02-22T09:48:59.754Z,97844.86
2023-02-22T09:51:53.650Z,97848.70
2023-02-22T09:54:34.632Z,97842.12
2023-02-22T09:57:09.369Z,97847.54
2023-02-22T09:59:43.164Z,97845.94
2023-02-22T10:02:27.465Z,97843.55
2023-02-22T10:05:07.663Z,97844.44
2023-02-22T10:08:06.735Z,97844.15
2023-02-22T10:10:39.629Z,97847.10
2023-02-22T10:13:47.439Z,97848.54
2023-02-22T10:16:47.043Z,97842.42
2023-02-22T10:19:25.993Z,97841.28
2023-02-22T10:22:24.145Z,97836.90
2023-02-22T10:24:55.077Z,97837.45
2023-02-22T10:27:45.242Z,97838.27
2023-02-22T10:30:25.027Z,97836.65
2023-02-22T10:33:15.457Z,97834.41
2023-02-22T10:35:46.844Z,97833.64
2023-02-22T10:38:23.762Z,97833.86
2023-02-22T10:41:00.197Z,97829.84
2023-02-22T10:43:28.193Z,97830.36
2023-02-22T10:46:03.637Z,97833.25
2023-02-22T10:48:38.988Z,97836.27
2023-02-22T10:51:09.700Z,97831.49
2023-02-22T10:53:40.995Z,97828.30
2023-02-22T10:56:23.821Z,97831.42
2023-02-22T10:59:02.740Z,97834.46
2023-02-22T11:01:33.476Z,97830.20
2023-02-22T11:04:19.184Z,97830.27
2023-02-22T11:06:49.622Z,97828.80
2023-02-22T11:09:18.970Z,97828.23
2023-02-22T11:11:48.494Z,97825.93
2023-02-22T11:14:28.639Z,97825.91
2023-02-22T11:16:58.809Z,97822.28
2023-02-22T11:19:29.396Z,97822.67
2023-02-22T11:22:00.003Z,97818.01
2023-02-22T11:24:32.591Z,97814.02
2023-02-22T11:27:09.434Z,97812.85
2023-02-22T11:29:38.950Z,97807.09
2023-02-22T11:32:22.505Z,97808.73
2023-02-22T11:35:03.565Z,97807.11
2023-02-22T11:37:37.864Z,97812.41
2023-02-22T11:40:20.784Z,97808.78
2023-02-22T11:43:09.163Z,97809.64
2023-02-22T11:45:40.050Z,97807.50
2023-02-22T11:48:08.765Z,97807.70
2023-02-22T11:51:03.179Z,97804.20
2023-02-22T11:53:58.226Z,97804.08
2023-02-22T11:56:41.228Z,97806.20
2023-02-22T11:59:44.636Z,97811.03
2023-02-22T12:02:21.050Z,97808.23
2023-02-22T12:05:25.632Z,97807.64
2023-02-22T12:08:24.593Z,97809.79
2023-02-22T12:11:14.806Z,97808.00
2023-02-22T12:14:06.493Z,97801.64
2023-02-22T12:16:39.656Z,97799.27
2023-02-22T12:19:29.006Z,97793.52
2023-02-22T12:22:03.919Z,97794.54
2023-02-22T12:24:43.294Z,97796.06
2023-02-22T12:27:24.637Z,97794.73
2023-02-22T12:30:16.434Z,97791.80
2023-02-22T12:32:49.322Z,97791.76
2023-02-22T12:35:35.671Z,97794.05
2023-02-22T12:38:15.263Z,97794.77
2023-02-22T12:40:56.655Z,97796.09
2023-02-22T12:43:46.215Z,97797.89
2023-02-22T12:46:22.230Z,97795.78
2023-02-22T12:48:52.164Z,97792.41
2023-02-22T12:51:45.309Z,97788.31
2023-02-22T12:54:26.250Z,97790.19
2023-02-22T12:57:17.874Z,97789.84
2023-02-22T12:59:52.547Z,97789.88
2023-02-22T13:02:31.882Z,97787.60
2023-02-22T13:05:00.696Z,97785.30
2023-02-22T13:07:50.032Z,97788.20
2023-02-22T13:10:20.857Z,97787.20
2023-02-22T13:13:08.340Z,97786.79
2023-02-22T13:16:08.573Z,97785.60
2023-02-22T13:19:07.957Z,97785.58
2023-02-22T13:21:59.236Z,97784.30
2023-02-22T13:24:40.743Z,97783.08
2023-02-22T13:27:17.338Z,97781.58
2023-02-22T13:29:49.218Z,97782.20
2023-02-22T13:32:27.673Z,97786.35
2023-02-22T13:35:00.414Z,97788.81
2023-02-22T13:37:36.284Z,97786.70
2023-02-22T13:40:43.756Z,97778.83
2023-02-22T13:43:41.302Z,97783.16
2023-02-22T13:46:13.731Z,97790.36
2023-02-22T13:49:08.839Z,97788.20
2023-02-22T13:51:53.084Z,97781.74
2023-02-22T13:54:24.218Z,97780.89
2023-02-22T13:56:57.498Z,97782.29
2023-02-22T13:59:36.271Z,97788.05
2023-02-22T14:02:08.632Z,97790.23
2023-02-22T14:04:43.903Z,97787.95
2023-02-22T14:07:24.425Z,97788.81
2023-02-22T14:09:54.736Z,97789.84
2023-02-22T14:12:31.483Z,97788.03
2023-02-22T14:15:29.186Z,97786.15
2023-02-22T14:17:58.382Z,97786.16
2023-02-22T14:20:32.667Z,97784.20
2023-02-22T14:23:43.893Z,97788.75
2023-02-22T14:26:13.483Z,97790.00
2023-02-22T14:28:44.268Z,97794.17
2023-02-22T14:31:29.497Z,97792.64
2023-02-22T14:34:18.010Z,97796.97
2023-02-22T14:36:55.024Z,97798.46
2023-02-22T14:39:44.059Z,97800.11
2023-02-22T14:42:14.456Z,97801.89
2023-02-22T14:44:57.940Z,97801.58
2023-02-22T14:47:39.684Z,97800.04
2023-02-22T14:50:16.028Z,97804.04
2023-02-22T14:52:46.861Z,97796.61
2023-02-22T14:55:22.564Z,97799.09
2023-02-22T14:58:10.619Z,97803.81
2023-02-22T15:00:40.574Z,97806.52
2023-02-22T15:03:19.283Z,97808.52
2023-02-22T15:05:47.485Z,97807.49
2023-02-22T15:08:17.786Z,97805.85
2023-02-22T15:10:52.505Z,97802.27
2023-02-22T15:13:26.980Z,97800.59
2023-02-22T15:16:03.607Z,97802.83
2023-02-22T15:18:35.670Z,97802.02
2023-02-22T15:21:17.444Z,97800.92
2023-02-22T15:24:01.787Z,97802.73
2023-02-22T15:26:59.039Z,97802.54
2023-02-22T15:29:44.611Z,97807.17
2023-02-22T15:32:37.108Z,97809.01
2023-02-22T15:35:23.784Z,97810.09
2023-02-22T15:38:01.819Z,97806.45
2023-02-22T15:40:33.773Z,97804.02
2023-02-22T15:43:09.420Z,97804.68
2023-02-22T15:45:43.284Z,97805.40
2023-02-22T15:48:12.592Z,97805.55
2023-02-22T15:50:39.638Z,97808.59
2023-02-22T15:53:08.526Z,97807.05
2023-02-22T15:55:47.726Z,97807.58
2023-02-22T15:58:29.320Z,97811.02
2023-02-22T16:01:05.490Z,97809.23
2023-02-22T16:03:48.798Z,97808.11
2023-02-22T16:06:29.019Z,97808.94
2023-02-22T16:08:59.236Z,97809.87
2023-02-22T16:11:41.440Z,97812.38
2023-02-22T16:14:39.384Z,97810.52
2023-02-22T16:17:31.552Z,97810.41
2023-02-22T16:20:19.739Z,97813.18
2023-02-22T16:22:52.077Z,97815.68
2023-02-22T16:25:19.286Z,97818.22
2023-02-22T16:27:51.141Z,97820.14
2023-02-22T16:30:24.849Z,97821.42
2023-02-22T16:32:56.324Z,97821.68
2023-02-22T16:35:29.434Z,97823.80
2023-02-22T16:38:01.057Z,97823.43
2023-02-22T16:40:36.153Z,97830.18
2023-02-22T16:43:08.200Z,97835.34
2023-02-22T16:45:37.103Z,97833.05
2023-02-22T16:48:25.529Z,97834.29
2023-02-22T16:50:54.754Z,97837.69
2023-02-22T16:53:24.453Z,97838.19
2023-02-22T16:55:58.988Z,97837.33
2023-02-22T16:58:33.522Z,97840.34
2023-02-22T17:01:01.363Z,97844.08
2023-02-22T17:03:28.628Z,97845.86
2023-02-22T17:05:55.912Z,97841.13
2023-02-22T17:08:23.521Z,97843.92
2023-02-22T17:10:52.037Z,97846.23
2023-02-22T17:13:26.990Z,97849.69
2023-02-22T17:15:56.002Z,97853.56
2023-02-22T17:18:29.269Z,97854.34
2023-02-22T17:20:56.815Z,97855.96
2023-02-22T17:23:24.639Z,97854.23
2023-02-22T17:25:55.273Z,97855.30
2023-02-22T17:28:24.872Z,97853.27
2023-02-22T17:30:53.264Z,97848.67
2023-02-22T17:33:27.797Z,97847.34
2023-02-22T17:35:58.045Z,97849.30
2023-02-22T17:38:29.526Z,97849.60
2023-02-22T17:40:59.248Z,97846.33
2023-02-22T17:43:28.127Z,97846.91
2023-02-22T17:46:01.629Z,97845.34
2023-02-22T17:48:29.381Z,97843.67
2023-02-22T17:50:56.552Z,97840.55
2023-02-22T17:53:25.169Z,97838.49
2023-02-22T17:55:52.403Z,97842.30
2023-02-22T17:58:19.686Z,97837.02
2023-02-22T18:00:51.169Z,97840.50
2023-02-22T18:03:22.015Z,97842.84
2023-02-22T18:05:51.792Z,97844.02
2023-02-22T18:08:19.919Z,97840.80
2023-02-22T18:10:47.648Z,97845.21
2023-02-22T18:13:18.901Z,97841.05
2023-02-22T18:15:50.490Z,97840.63
2023-02-22T18:18:18.288Z,97847.15
2023-02-22T18:20:51.901Z,97848.14
2023-02-22T18:23:25.470Z,97847.70
2023-02-22T18:26:09.190Z,97847.77
2023-02-22T18:28:38.015Z,97851.77
2023-02-22T18:31:13.403Z,97847.34
2023-02-22T18:33:43.249Z,97848.73
2023-02-22T18:36:14.096Z,97846.59
2023-02-22T18:38:45.097Z,97847.32
2023-02-22T18:41:16.017Z,97845.45
2023-02-22T18:43:44.093Z,97847.52
2023-02-22T18:46:20.193Z,97847.30
2023-02-22T18:48:47.887Z,97848.80
2023-02-22T18:51:20.214Z,97849.05
2023-02-22T18:53:51.054Z,97848.74
2023-02-22T18:56:24.651Z,97848.05
2023-02-22T18:58:55.108Z,97845.79
2023-02-22T19:01:23.020Z,97846.60
2023-02-22T19:03:51.964Z,97847.77
2023-02-22T19:06:22.849Z,97849.65
2023-02-22T19:08:51.473Z,97850.39
2023-02-22T19:11:24.824Z,97850.61
2023-02-22T19:13:54.356Z,97854.56
2023-02-22T19:16:23.100Z,97850.98
2023-02-22T19:18:53.177Z,97850.34
2023-02-22T19:21:21.358Z,97849.98
2023-02-22T19:23:48.890Z,97851.52
2023-02-22T19:26:24.656Z,97849.52
2023-02-22T19:28:54.082Z,97854.45
2023-02-22T19:31:31.685Z,97859.77
2023-02-22T19:34:09.461Z,97858.44
2023-02-22T19:36:42.110Z,97858.27
2023-02-22T19:39:09.812Z,97855.09
2023-02-22T19:41:38.260Z,97856.01
2023-02-22T19:44:06.215Z,97859.61
2023-02-22T19:46:33.535Z,97857.38
2023-02-22T19:49:02.195Z,97857.53
2023-02-22T19:51:31.166Z,97855.80
2023-02-22T19:54:00.857Z,97858.88
2023-02-22T19:56:29.613Z,97859.06
2023-02-22T19:58:59.262Z,97864.41
2023-02-22T20:01:30.449Z,97862.95
2023-02-22T20:04:00.767Z,97864.89
2023-02-22T20:06:31.931Z,97867.88
2023-02-22T20:08:59.614Z,97871.72
2023-02-22T20:11:27.858Z,97871.48
2023-02-22T20:13:56.479Z,97867.61
2023-02-22T20:16:24.707Z,97868.82
2023-02-22T20:18:51.813Z,97867.34
2023-02-22T20:21:28.559Z,97864.11
2023-02-22T20:24:00.030Z,97867.65
2023-02-22T20:26:37.231Z,97865.60
2023-02-22T20:29:07.486Z,97865.80
2023-02-22T20:31:35.534Z,97862.27
2023-02-22T20:34:07.156Z,97861.63
2023-02-22T20:36:37.596Z,97863.41
2023-02-22T20:39:15.903Z,97862.11
2023-02-22T20:41:45.321Z,97863.08
2023-02-22T20:44:18.696Z,97866.02
2023-02-22T20:46:46.759Z,97872.70
2023-02-22T20:49:19.955Z,97872.36
2023-02-22T20:51:49.027Z,97873.71
2023-02-22T20:54:17.233Z,97871.00
2023-02-22T20:56:46.170Z,97874.09
2023-02-22T20:59:16.283Z,97875.14
2023-02-22T21:01:43.371Z,97871.02
2023-02-22T21:04:13.826Z,97875.23
2023-02-22T21:06:41.970Z,97878.07
2023-02-22T21:09:16.945Z,97879.02
2023-02-22T21:11:47.492Z,97879.06
2023-02-22T21:14:18.990Z,97880.63
2023-02-22T21:16:52.617Z,97876.77
2023-02-22T21:19:26.631Z,97878.48
2023-02-22T21:21:55.819Z,97879.00
2023-02-22T21:24:25.945Z,97877.39
2023-02-22T21:26:53.059Z,97879.74
2023-02-22T21:29:20.404Z,97882.50
2023-02-22T21:31:50.376Z,97879.05
2023-02-22T21:34:18.030Z,97881.17
2023-02-22T21:36:46.184Z,97876.48
2023-02-22T21:39:21.974Z,97876.33
2023-02-22T21:41:52.653Z,97872.41
2023-02-22T21:44:20.526Z,97872.21
2023-02-22T21:46:51.059Z,97870.05
2023-02-22T21:49:23.453Z,97869.66
2023-02-22T21:51:52.849Z,97868.71
2023-02-22T21:54:20.641Z,97861.52
2023-02-22T21:56:48.285Z,97862.19
2023-02-22T21:59:20.839Z,97862.59
2023-02-22T22:01:56.442Z,97863.33
2023-02-22T22:04:29.075Z,97860.55
2023-02-22T22:06:59.407Z,97857.72
2023-02-22T22:09:33.236Z,97853.09
2023-02-22T22:12:08.435Z,97857.85
2023-02-22T22:14:36.487Z,97855.43
2023-02-22T22:17:06.102Z,97858.33
2023-02-22T22:19:39.622Z,97859.67
2023-02-22T22:22:08.203Z,97862.14
2023-02-22T22:24:35.783Z,97860.73
2023-02-22T22:27:10.286Z,97860.20
2023-02-22T22:29:39.800Z,97859.06
2023-02-22T22:32:07.092Z,97856.98
2023-02-22T22:34:35.957Z,97859.11
2023-02-22T22:37:04.108Z,97854.81
2023-02-22T22:39:31.378Z,97858.11
2023-02-22T22:41:58.721Z,97858.98
2023-02-22T22:44:33.178Z,97856.31
2023-02-22T22:47:00.936Z,97855.61
2023-02-22T22:49:48.352Z,97854.85
2023-02-22T22:52:19.349Z,97852.11
2023-02-22T22:54:51.596Z,97855.39
2023-02-22T22:57:18.906Z,97852.91
2023-02-22T22:59:46.619Z,97850.85
2023-02-22T23:02:13.804Z,97852.67
2023-02-22T23:04:40.996Z,97850.90
2023-02-22T23:07:08.396Z,97850.98
2023-02-22T23:09:38.829Z,97851.38
2023-02-22T23:12:09.708Z,97853.33
2023-02-22T23:14:39.788Z,97857.04
2023-02-22T23:17:16.368Z,97852.99
2023-02-22T23:19:45.899Z,97852.39
2023-02-22T23:22:15.634Z,97855.73
2023-02-22T23:24:44.938Z,97855.89
2023-02-22T23:27:12.670Z,97854.41
2023-02-22T23:29:44.511Z,97852.80
2023-02-22T23:32:15.053Z,97849.68
2023-02-22T23:34:42.421Z,97850.21
2023-02-22T23:37:11.557Z,97849.05
2023-02-22T23:39:39.355Z,97848.05
2023-02-22T23:42:10.701Z,97847.24
2023-02-22T23:44:37.826Z,97850.33
2023-02-22T23:47:05.114Z,97846.04
2023-02-22T23:49:51.235Z,97842.19
2023-02-22T23:52:27.673Z,97841.88
2023-02-22T23:55:03.283Z,97838.69
2023-02-22T23:57:33.160Z,97836.90
